createdAt,value
2018-09-13T00:00:43.393Z,0.00
2018-09-13T00:01:43.547Z,0.00
2018-09-13T00:02:43.698Z,0.00
2018-09-13T00:03:43.851Z,0.00
2018-09-13T00:04:44.010Z,0.00
2018-09-13T00:05:44.167Z,0.00
2018-09-13T00:06:44.310Z,0.00
2018-09-13T00:07:44.464Z,0.00
2018-09-13T00:08:44.615Z,0.00
2018-09-13T00:09:44.774Z,0.00
2018-09-13T00:10:44.921Z,0.00
2018-09-13T00:11:45.076Z,0.00
2018-09-13T00:12:45.228Z,0.00
2018-09-13T00:13:45.378Z,0.00
2018-09-13T00:14:45.534Z,0.00
2018-09-13T00:15:45.681Z,0.00
2018-09-13T00:16:45.834Z,0.00
2018-09-13T00:17:45.988Z,0.00
2018-09-13T00:18:46.142Z,0.00
2018-09-13T00:19:46.298Z,0.00
2018-09-13T00:20:46.453Z,0.00
2018-09-13T00:21:46.603Z,0.00
2018-09-13T00:22:46.758Z,0.00
2018-09-13T00:23:46.906Z,0.00
2018-09-13T00:24:47.060Z,0.00
2018-09-13T00:25:47.224Z,0.00
2018-09-13T00:26:47.365Z,0.00
2018-09-13T00:27:47.517Z,0.00
2018-09-13T00:28:47.666Z,0.00
2018-09-13T00:29:47.820Z,0.00
2018-09-13T00:30:47.972Z,0.00
2018-09-13T00:31:48.123Z,0.00
2018-09-13T00:32:48.276Z,0.00
2018-09-13T00:33:48.430Z,0.00
2018-09-13T00:34:48.630Z,0.00
2018-09-13T00:35:48.780Z,0.00
2018-09-13T00:36:48.931Z,0.00
2018-09-13T00:37:49.084Z,0.00
2018-09-13T00:38:49.236Z,0.00
2018-09-13T00:39:49.386Z,0.00
2018-09-13T00:40:49.544Z,0.00
2018-09-13T00:41:49.695Z,0.00
2018-09-13T00:42:49.845Z,0.00
2018-09-13T00:43:49.996Z,0.00
2018-09-13T00:44:50.149Z,0.00
2018-09-13T00:45:50.300Z,0.00
2018-09-13T00:46:50.452Z,0.00
2018-09-13T00:47:50.603Z,0.00
2018-09-13T00:48:50.755Z,0.00
2018-09-13T00:49:50.907Z,0.00
2018-09-13T00:50:51.061Z,0.00
2018-09-13T00:51:51.248Z,0.00
2018-09-13T00:52:51.375Z,0.00
2018-09-13T00:53:51.517Z,0.00
2018-09-13T00:54:51.666Z,0.00
2018-09-13T00:55:51.853Z,0.00
2018-09-13T00:56:52.005Z,0.00
2018-09-13T00:57:52.157Z,0.00
2018-09-13T00:58:52.357Z,0.00
2018-09-13T00:59:52.462Z,0.00
2018-09-13T01:00:52.613Z,0.00
2018-09-13T01:01:52.767Z,0.00
2018-09-13T01:02:52.917Z,0.00
2018-09-13T01:03:53.073Z,0.00
2018-09-13T01:04:53.223Z,0.00
2018-09-13T01:05:53.375Z,0.00
2018-09-13T01:06:53.526Z,0.00
2018-09-13T01:07:53.676Z,0.00
2018-09-13T01:08:53.836Z,0.00
2018-09-13T01:09:53.982Z,0.00
2018-09-13T01:10:54.133Z,0.00
2018-09-13T01:11:54.288Z,0.00
2018-09-13T01:12:54.440Z,0.00
2018-09-13T01:13:54.593Z,0.00
2018-09-13T01:14:54.750Z,0.00
2018-09-13T01:15:54.899Z,0.00
2018-09-13T01:16:55.052Z,0.00
2018-09-13T01:17:55.208Z,0.00
2018-09-13T01:18:55.353Z,0.00
2018-09-13T01:19:55.506Z,0.00
2018-09-13T01:20:55.662Z,0.00
2018-09-13T01:21:55.809Z,0.00
2018-09-13T01:22:55.963Z,0.00
2018-09-13T01:23:56.119Z,0.00
2018-09-13T01:24:56.270Z,0.00
2018-09-13T01:25:56.422Z,0.00
2018-09-13T01:26:56.575Z,0.00
2018-09-13T01:27:56.725Z,0.00
2018-09-13T01:28:56.878Z,0.00
2018-09-13T01:29:57.027Z,0.00
2018-09-13T01:30:57.175Z,0.00
2018-09-13T01:31:57.327Z,0.00
2018-09-13T01:32:57.478Z,0.00
2018-09-13T01:33:57.628Z,0.00
2018-09-13T01:34:57.784Z,0.00
2018-09-13T01:35:57.941Z,0.00
2018-09-13T01:36:58.089Z,0.00
2018-09-13T01:37:58.240Z,0.00
2018-09-13T01:38:58.392Z,0.00
2018-09-13T01:39:58.544Z,0.00
2018-09-13T01:40:58.695Z,0.00
2018-09-13T01:41:58.850Z,0.00
2018-09-13T01:42:58.999Z,0.00
2018-09-13T01:43:59.154Z,0.00
2018-09-13T01:44:59.306Z,0.00
2018-09-13T01:45:59.460Z,0.00
2018-09-13T01:46:59.611Z,0.00
2018-09-13T01:47:59.763Z,0.00
2018-09-13T01:48:59.916Z,0.00
2018-09-13T01:50:00.069Z,0.00
2018-09-13T01:51:00.218Z,0.00
2018-09-13T01:52:00.374Z,0.00
2018-09-13T01:53:00.525Z,0.00
2018-09-13T01:54:00.675Z,0.00
2018-09-13T01:55:00.833Z,0.00
2018-09-13T01:56:00.980Z,0.00
2018-09-13T01:57:01.130Z,0.00
2018-09-13T01:58:01.284Z,0.00
2018-09-13T01:59:01.438Z,0.00
2018-09-13T02:00:01.590Z,0.00
2018-09-13T02:01:01.742Z,0.00
2018-09-13T02:02:01.895Z,0.00
2018-09-13T02:03:02.046Z,0.00
2018-09-13T02:04:02.198Z,0.00
2018-09-13T02:05:02.350Z,0.00
2018-09-13T02:06:02.503Z,0.00
2018-09-13T02:07:02.656Z,0.00
2018-09-13T02:08:02.808Z,0.00
2018-09-13T02:09:02.967Z,0.00
2018-09-13T02:10:03.122Z,0.00
2018-09-13T02:11:03.270Z,0.00
2018-09-13T02:12:03.422Z,0.00
2018-09-13T02:13:03.574Z,0.00
2018-09-13T02:14:03.727Z,0.00
2018-09-13T02:15:03.880Z,0.00
2018-09-13T02:16:04.033Z,0.00
2018-09-13T02:17:04.185Z,0.00
2018-09-13T02:18:04.337Z,0.00
2018-09-13T02:19:04.489Z,0.00
2018-09-13T02:20:04.643Z,0.00
2018-09-13T02:21:04.795Z,0.00
2018-09-13T02:22:04.947Z,0.00
2018-09-13T02:23:05.104Z,0.00
2018-09-13T02:24:05.257Z,0.00
2018-09-13T02:25:05.408Z,0.00
2018-09-13T02:26:05.561Z,0.00
2018-09-13T02:27:05.710Z,0.00
2018-09-13T02:28:05.864Z,0.00
2018-09-13T02:29:06.019Z,0.00
2018-09-13T02:30:06.170Z,0.00
2018-09-13T02:31:06.322Z,0.00
2018-09-13T02:32:06.479Z,0.00
2018-09-13T02:33:06.629Z,0.00
2018-09-13T02:34:06.799Z,0.00
2018-09-13T02:35:06.954Z,0.00
2018-09-13T02:36:07.104Z,0.00
2018-09-13T02:37:07.258Z,0.00
2018-09-13T02:38:07.411Z,0.00
2018-09-13T02:39:07.562Z,0.00
2018-09-13T02:40:07.718Z,0.00
2018-09-13T02:41:07.867Z,0.00
2018-09-13T02:42:08.024Z,0.00
2018-09-13T02:43:08.176Z,0.00
2018-09-13T02:44:08.327Z,0.00
2018-09-13T02:45:08.481Z,0.00
2018-09-13T02:46:08.638Z,0.00
2018-09-13T02:47:08.787Z,0.00
2018-09-13T02:48:08.940Z,0.00
2018-09-13T02:49:09.105Z,0.00
2018-09-13T02:50:09.248Z,0.00
2018-09-13T02:51:09.404Z,0.00
2018-09-13T02:52:09.552Z,0.00
2018-09-13T02:53:09.704Z,0.00
2018-09-13T02:54:09.857Z,0.00
2018-09-13T02:55:10.009Z,0.00
2018-09-13T02:56:10.163Z,0.00
2018-09-13T02:57:10.314Z,0.00
2018-09-13T02:58:10.469Z,0.00
2018-09-13T02:59:10.620Z,0.00
2018-09-13T03:00:10.772Z,0.00
2018-09-13T03:01:10.930Z,0.00
2018-09-13T03:02:11.077Z,0.00
2018-09-13T03:03:11.227Z,0.00
2018-09-13T03:04:11.383Z,0.00
2018-09-13T03:05:11.533Z,0.00
2018-09-13T03:06:11.688Z,0.00
2018-09-13T03:07:11.838Z,0.00
2018-09-13T03:08:12.026Z,0.00
2018-09-13T03:09:12.145Z,0.00
2018-09-13T03:10:12.297Z,0.00
2018-09-13T03:11:12.450Z,0.00
2018-09-13T03:12:12.608Z,0.00
2018-09-13T03:13:12.759Z,0.00
2018-09-13T03:14:12.910Z,0.00
2018-09-13T03:15:13.064Z,0.00
2018-09-13T03:16:13.215Z,0.00
2018-09-13T03:17:13.370Z,0.00
2018-09-13T03:18:13.535Z,0.00
2018-09-13T03:19:13.677Z,0.00
2018-09-13T03:20:13.827Z,0.00
2018-09-13T03:21:13.985Z,0.00
2018-09-13T03:22:14.133Z,0.00
2018-09-13T03:23:14.286Z,0.00
2018-09-13T03:24:14.438Z,0.00
2018-09-13T03:25:14.589Z,0.00
2018-09-13T03:26:14.742Z,0.00
2018-09-13T03:27:14.894Z,0.00
2018-09-13T03:28:15.047Z,0.00
2018-09-13T03:29:15.199Z,0.00
2018-09-13T03:30:15.353Z,0.00
2018-09-13T03:31:15.505Z,0.00
2018-09-13T03:32:15.660Z,0.00
2018-09-13T03:33:15.810Z,0.00
2018-09-13T03:34:15.963Z,0.00
2018-09-13T03:35:16.117Z,0.00
2018-09-13T03:36:16.271Z,0.00
2018-09-13T03:37:16.428Z,0.00
2018-09-13T03:38:16.577Z,0.00
2018-09-13T03:39:16.729Z,0.00
2018-09-13T03:40:16.883Z,0.00
2018-09-13T03:41:17.035Z,0.00
2018-09-13T03:42:17.187Z,0.00
2018-09-13T03:43:17.341Z,0.00
2018-09-13T03:44:17.493Z,0.00
2018-09-13T03:45:17.648Z,0.00
2018-09-13T03:46:17.804Z,0.00
2018-09-13T03:47:17.956Z,0.00
2018-09-13T03:48:18.109Z,0.00
2018-09-13T03:49:18.264Z,0.00
2018-09-13T03:50:18.417Z,0.00
2018-09-13T03:51:18.569Z,0.00
2018-09-13T03:52:18.723Z,0.00
2018-09-13T03:53:18.873Z,0.00
2018-09-13T03:54:19.027Z,0.00
2018-09-13T03:55:19.183Z,0.00
2018-09-13T03:56:19.333Z,0.00
2018-09-13T03:57:19.492Z,0.00
2018-09-13T03:58:19.647Z,0.00
2018-09-13T03:59:19.796Z,0.00
2018-09-13T04:00:19.949Z,0.00
2018-09-13T04:01:20.102Z,0.00
2018-09-13T04:02:20.257Z,0.00
2018-09-13T04:03:20.433Z,0.00
2018-09-13T04:04:20.561Z,0.00
2018-09-13T04:05:20.714Z,0.00
2018-09-13T04:06:20.868Z,0.00
2018-09-13T04:07:21.024Z,0.00
2018-09-13T04:08:21.174Z,0.00
2018-09-13T04:09:21.391Z,0.00
2018-09-13T04:10:21.476Z,0.00
2018-09-13T04:11:21.629Z,0.00
2018-09-13T04:12:21.779Z,0.00
2018-09-13T04:13:21.941Z,0.00
2018-09-13T04:14:22.105Z,0.00
2018-09-13T04:15:22.264Z,0.00
2018-09-13T04:16:22.412Z,0.00
2018-09-13T04:17:22.567Z,0.00
2018-09-13T04:18:22.715Z,0.00
2018-09-13T04:19:22.868Z,0.00
2018-09-13T04:20:23.021Z,0.00
2018-09-13T04:21:23.172Z,0.00
2018-09-13T04:22:23.334Z,0.00
2018-09-13T04:23:23.482Z,0.00
2018-09-13T04:24:23.631Z,0.00
2018-09-13T04:25:23.786Z,0.00
2018-09-13T04:26:23.937Z,0.00
2018-09-13T04:27:24.149Z,0.00
2018-09-13T04:28:24.257Z,0.00
2018-09-13T04:29:24.414Z,4.00
2018-09-13T04:30:24.555Z,4.00
2018-09-13T04:31:24.706Z,0.00
2018-09-13T04:32:24.859Z,4.00
2018-09-13T04:33:25.010Z,4.00
2018-09-13T04:34:25.165Z,4.00
2018-09-13T04:35:25.319Z,4.00
2018-09-13T04:36:25.470Z,4.00
2018-09-13T04:37:25.630Z,8.00
2018-09-13T04:38:25.778Z,8.00
2018-09-13T04:39:25.929Z,12.00
2018-09-13T04:40:26.081Z,12.00
2018-09-13T04:41:26.234Z,12.00
2018-09-13T04:42:26.384Z,16.00
2018-09-13T04:43:26.538Z,20.00
2018-09-13T04:44:27.591Z,20.00
2018-09-13T04:45:26.789Z,24.00
2018-09-13T04:46:26.937Z,24.00
2018-09-13T04:47:27.087Z,28.00
2018-09-13T04:48:27.239Z,36.00
2018-09-13T04:49:27.394Z,36.00
2018-09-13T04:50:27.547Z,40.00
2018-09-13T04:51:27.701Z,48.00
2018-09-13T04:52:27.855Z,52.00
2018-09-13T04:53:28.007Z,52.00
2018-09-13T04:54:28.163Z,60.00
2018-09-13T04:55:28.316Z,64.00
2018-09-13T04:56:28.470Z,64.00
2018-09-13T04:57:28.623Z,72.00
2018-09-13T04:58:28.775Z,76.00
2018-09-13T04:59:28.931Z,84.00
2018-09-13T05:00:29.082Z,84.00
2018-09-13T05:01:29.235Z,92.00
2018-09-13T05:02:29.392Z,96.00
2018-09-13T05:03:29.543Z,104.00
2018-09-13T05:04:29.700Z,112.00
2018-09-13T05:05:29.850Z,128.00
2018-09-13T05:06:30.058Z,148.00
2018-09-13T05:07:30.156Z,180.00
2018-09-13T05:08:30.309Z,208.00
2018-09-13T05:09:30.462Z,236.00
2018-09-13T05:10:30.615Z,264.00
2018-09-13T05:11:30.768Z,284.00
2018-09-13T05:12:30.923Z,304.00
2018-09-13T05:13:31.076Z,320.00
2018-09-13T05:14:31.259Z,336.00
2018-09-13T05:15:31.382Z,356.00
2018-09-13T05:16:31.534Z,368.00
2018-09-13T05:17:31.687Z,380.00
2018-09-13T05:18:31.841Z,392.00
2018-09-13T05:19:31.996Z,400.00
2018-09-13T05:20:32.148Z,412.00
2018-09-13T05:21:32.297Z,424.00
2018-09-13T05:22:32.453Z,444.00
2018-09-13T05:23:32.604Z,468.00
2018-09-13T05:24:32.758Z,496.00
2018-09-13T05:25:32.911Z,528.00
2018-09-13T05:26:33.065Z,560.00
2018-09-13T05:27:33.217Z,600.00
2018-09-13T05:28:33.371Z,632.00
2018-09-13T05:29:33.527Z,676.00
2018-09-13T05:30:33.680Z,712.00
2018-09-13T05:31:33.861Z,748.00
2018-09-13T05:32:33.988Z,776.00
2018-09-13T05:33:34.141Z,800.00
2018-09-13T05:34:34.294Z,816.00
2018-09-13T05:35:34.447Z,828.00
2018-09-13T05:36:34.602Z,844.00
2018-09-13T05:37:34.753Z,860.00
2018-09-13T05:38:34.907Z,880.00
2018-09-13T05:39:35.060Z,900.00
2018-09-13T05:40:35.213Z,920.00
2018-09-13T05:41:35.371Z,944.00
2018-09-13T05:42:35.522Z,976.00
2018-09-13T05:43:35.676Z,1008.00
2018-09-13T05:44:35.834Z,1056.00
2018-09-13T05:45:35.988Z,1124.00
2018-09-13T05:46:36.138Z,1208.00
2018-09-13T05:47:36.289Z,1280.00
2018-09-13T05:48:36.440Z,1344.00
2018-09-13T05:49:36.594Z,1384.00
2018-09-13T05:50:36.746Z,1428.00
2018-09-13T05:51:36.898Z,1492.00
2018-09-13T05:52:37.049Z,1584.00
2018-09-13T05:53:37.202Z,1688.00
2018-09-13T05:54:37.363Z,1792.00
2018-09-13T05:55:37.515Z,1868.00
2018-09-13T05:56:37.663Z,1896.00
2018-09-13T05:57:37.817Z,1896.00
2018-09-13T05:58:37.969Z,1892.00
2018-09-13T05:59:38.123Z,1888.00
2018-09-13T06:00:38.274Z,1868.00
2018-09-13T06:01:38.429Z,1820.00
2018-09-13T06:02:38.584Z,1768.00
2018-09-13T06:03:38.734Z,1736.00
2018-09-13T06:04:38.887Z,1728.00
2018-09-13T06:05:39.040Z,1724.00
2018-09-13T06:06:39.192Z,1716.00
2018-09-13T06:07:39.347Z,1708.00
2018-09-13T06:08:39.499Z,1700.00
2018-09-13T06:09:39.651Z,1684.00
2018-09-13T06:10:39.808Z,1660.00
2018-09-13T06:11:39.965Z,1632.00
2018-09-13T06:12:40.110Z,1604.00
2018-09-13T06:13:40.348Z,1560.00
2018-09-13T06:14:40.415Z,1520.00
2018-09-13T06:15:40.569Z,1480.00
2018-09-13T06:16:40.722Z,1448.00
2018-09-13T06:17:40.874Z,1436.00
2018-09-13T06:18:41.029Z,1440.00
2018-09-13T06:19:41.242Z,1460.00
2018-09-13T06:20:41.335Z,1500.00
2018-09-13T06:21:41.488Z,1544.00
2018-09-13T06:22:41.641Z,1604.00
2018-09-13T06:23:41.795Z,1676.00
2018-09-13T06:24:41.949Z,1752.00
2018-09-13T06:25:42.101Z,1820.00
2018-09-13T06:26:42.253Z,1892.00
2018-09-13T06:27:42.408Z,1944.00
2018-09-13T06:28:42.563Z,1984.00
2018-09-13T06:29:42.716Z,2024.00
2018-09-13T06:30:42.871Z,2096.00
2018-09-13T06:31:43.025Z,2184.00
2018-09-13T06:32:43.180Z,2268.00
2018-09-13T06:33:43.331Z,2356.00
2018-09-13T06:34:43.488Z,2420.00
2018-09-13T06:35:43.642Z,2484.00
2018-09-13T06:36:43.793Z,2540.00
2018-09-13T06:37:43.944Z,2576.00
2018-09-13T06:38:44.102Z,2572.00
2018-09-13T06:39:44.307Z,2556.00
2018-09-13T06:40:44.406Z,2516.00
2018-09-13T06:41:44.557Z,2460.00
2018-09-13T06:42:44.712Z,2376.00
2018-09-13T06:43:44.864Z,2288.00
2018-09-13T06:44:45.020Z,2204.00
2018-09-13T06:45:45.175Z,2156.00
2018-09-13T06:46:45.347Z,2152.00
2018-09-13T06:47:45.482Z,2176.00
2018-09-13T06:48:45.634Z,2236.00
2018-09-13T06:49:45.784Z,2332.00
2018-09-13T06:50:45.955Z,2452.00
2018-09-13T06:51:46.108Z,2588.00
2018-09-13T06:52:46.271Z,2776.00
2018-09-13T06:53:46.416Z,3016.00
2018-09-13T06:54:46.570Z,3288.00
2018-09-13T06:55:46.723Z,3540.00
2018-09-13T06:56:46.877Z,3784.00
2018-09-13T06:57:47.030Z,4020.00
2018-09-13T06:58:47.183Z,4264.00
2018-09-13T06:59:47.338Z,4528.00
2018-09-13T07:00:47.490Z,4836.00
2018-09-13T07:01:47.645Z,5140.00
2018-09-13T07:02:47.802Z,5436.00
2018-09-13T07:03:47.954Z,5708.00
2018-09-13T07:04:48.107Z,5964.00
2018-09-13T07:05:48.261Z,6200.00
2018-09-13T07:06:48.413Z,6464.00
2018-09-13T07:07:48.569Z,6760.00
2018-09-13T07:08:48.724Z,7072.00
2018-09-13T07:09:48.875Z,7344.00
2018-09-13T07:10:49.030Z,7548.00
2018-09-13T07:11:49.182Z,7672.00
2018-09-13T07:12:49.338Z,7708.00
2018-09-13T07:13:49.488Z,7656.00
2018-09-13T07:14:49.641Z,7580.00
2018-09-13T07:15:49.796Z,7492.00
2018-09-13T07:16:49.952Z,7424.00
2018-09-13T07:17:50.108Z,7372.00
2018-09-13T07:18:50.258Z,7304.00
2018-09-13T07:19:50.413Z,7204.00
2018-09-13T07:20:50.570Z,7084.00
2018-09-13T07:21:50.728Z,6968.00
2018-09-13T07:22:50.876Z,6900.00
2018-09-13T07:23:51.031Z,6880.00
2018-09-13T07:24:51.185Z,6892.00
2018-09-13T07:25:51.336Z,6936.00
2018-09-13T07:26:51.490Z,7000.00
2018-09-13T07:27:51.644Z,7064.00
2018-09-13T07:28:51.797Z,7116.00
2018-09-13T07:29:51.953Z,7144.00
2018-09-13T07:30:52.144Z,7124.00
2018-09-13T07:31:52.286Z,7076.00
2018-09-13T07:32:52.442Z,7004.00
2018-09-13T07:33:52.590Z,6904.00
2018-09-13T07:34:52.744Z,6780.00
2018-09-13T07:35:52.899Z,6716.00
2018-09-13T07:36:53.123Z,6732.00
2018-09-13T07:37:53.207Z,6824.00
2018-09-13T07:38:53.368Z,6928.00
2018-09-13T07:39:53.512Z,6944.00
2018-09-13T07:40:53.666Z,6860.00
2018-09-13T07:41:53.824Z,6656.00
2018-09-13T07:42:54.031Z,6444.00
2018-09-13T07:43:54.130Z,6300.00
2018-09-13T07:44:54.284Z,6228.00
2018-09-13T07:45:54.438Z,6204.00
2018-09-13T07:46:54.594Z,6208.00
2018-09-13T07:47:54.745Z,6220.00
2018-09-13T07:48:54.942Z,6288.00
2018-09-13T07:49:55.277Z,6408.00
2018-09-13T07:50:55.209Z,6596.00
2018-09-13T07:51:55.365Z,6852.00
2018-09-13T07:52:55.521Z,7108.00
2018-09-13T07:53:55.676Z,7336.00
2018-09-13T07:54:55.834Z,7512.00
2018-09-13T07:55:55.986Z,7672.00
2018-09-13T07:56:56.141Z,7784.00
2018-09-13T07:57:56.299Z,7892.00
2018-09-13T07:58:56.449Z,8048.00
2018-09-13T07:59:56.604Z,8268.00
2018-09-13T08:00:56.760Z,8500.00
2018-09-13T08:01:56.915Z,8720.00
2018-09-13T08:02:57.068Z,8880.00
2018-09-13T08:03:57.223Z,8928.00
2018-09-13T08:04:57.439Z,8924.00
2018-09-13T08:05:57.531Z,8956.00
2018-09-13T08:06:57.685Z,9116.00
2018-09-13T08:07:57.838Z,9232.00
2018-09-13T08:08:57.998Z,9192.00
2018-09-13T08:09:58.154Z,9100.00
2018-09-13T08:10:58.307Z,8888.00
2018-09-13T08:11:58.521Z,8604.00
2018-09-13T08:12:58.611Z,8316.00
2018-09-13T08:13:58.766Z,8052.00
2018-09-13T08:14:58.917Z,7828.00
2018-09-13T08:15:59.156Z,7656.00
2018-09-13T08:16:59.233Z,7528.00
2018-09-13T08:17:59.384Z,7420.00
2018-09-13T08:18:59.543Z,7320.00
2018-09-13T08:19:59.698Z,7216.00
2018-09-13T08:20:59.851Z,7172.00
2018-09-13T08:22:00.012Z,7228.00
2018-09-13T08:23:00.163Z,7332.00
2018-09-13T08:24:00.316Z,7436.00
2018-09-13T08:25:00.477Z,7472.00
2018-09-13T08:26:00.629Z,7408.00
2018-09-13T08:27:00.806Z,7240.00
2018-09-13T08:28:00.936Z,7060.00
2018-09-13T08:29:01.089Z,6860.00
2018-09-13T08:30:01.248Z,6656.00
2018-09-13T08:31:01.406Z,6432.00
2018-09-13T08:32:01.553Z,6216.00
2018-09-13T08:33:01.708Z,5960.00
2018-09-13T08:34:01.863Z,5760.00
2018-09-13T08:35:02.191Z,5560.00
2018-09-13T08:36:02.173Z,5256.00
2018-09-13T08:37:02.352Z,5040.00
2018-09-13T08:38:02.482Z,4932.00
2018-09-13T08:39:02.636Z,5008.00
2018-09-13T08:40:02.812Z,5116.00
2018-09-13T08:41:02.948Z,5488.00
2018-09-13T08:42:03.104Z,6096.00
2018-09-13T08:43:03.269Z,6424.00
2018-09-13T08:44:03.412Z,6716.00
2018-09-13T08:45:03.571Z,6932.00
2018-09-13T08:46:03.725Z,7084.00
2018-09-13T08:47:03.878Z,7080.00
2018-09-13T08:48:04.036Z,6984.00
2018-09-13T08:49:04.187Z,6832.00
2018-09-13T08:50:04.343Z,6684.00
2018-09-13T08:51:04.500Z,6604.00
2018-09-13T08:52:04.711Z,6588.00
2018-09-13T08:53:04.807Z,6608.00
2018-09-13T08:54:04.961Z,6684.00
2018-09-13T08:55:05.122Z,6768.00
2018-09-13T08:56:05.269Z,6920.00
2018-09-13T08:57:05.425Z,7116.00
2018-09-13T08:58:05.580Z,7284.00
2018-09-13T08:59:05.734Z,7400.00
2018-09-13T09:00:05.890Z,7444.00
2018-09-13T09:01:06.049Z,7464.00
2018-09-13T09:02:06.201Z,7508.00
2018-09-13T09:03:06.356Z,7588.00
2018-09-13T09:04:06.511Z,7696.00
2018-09-13T09:05:06.667Z,7832.00
2018-09-13T09:06:06.894Z,7948.00
2018-09-13T09:07:06.980Z,7952.00
2018-09-13T09:08:07.133Z,7792.00
2018-09-13T09:09:07.289Z,7564.00
2018-09-13T09:10:07.447Z,7308.00
2018-09-13T09:11:07.603Z,7064.00
2018-09-13T09:12:07.761Z,6864.00
2018-09-13T09:13:07.913Z,6652.00
2018-09-13T09:14:08.067Z,6432.00
2018-09-13T09:15:08.222Z,6284.00
2018-09-13T09:16:08.379Z,6228.00
2018-09-13T09:17:08.532Z,6252.00
2018-09-13T09:18:08.690Z,6304.00
2018-09-13T09:19:08.846Z,6352.00
2018-09-13T09:20:09.006Z,6452.00
2018-09-13T09:21:09.161Z,6728.00
2018-09-13T09:22:09.316Z,7280.00
2018-09-13T09:23:09.474Z,7944.00
2018-09-13T09:24:09.696Z,8524.00
2018-09-13T09:25:09.784Z,9128.00
2018-09-13T09:26:09.938Z,9768.00
2018-09-13T09:27:10.096Z,10112.00
2018-09-13T09:28:10.251Z,10204.00
2018-09-13T09:29:10.434Z,10268.00
2018-09-13T09:30:10.563Z,10296.00
2018-09-13T09:31:10.736Z,10308.00
2018-09-13T09:32:10.890Z,10188.00
2018-09-13T09:33:11.048Z,9956.00
2018-09-13T09:34:11.202Z,9800.00
2018-09-13T09:35:11.358Z,9632.00
2018-09-13T09:36:11.514Z,9440.00
2018-09-13T09:37:11.669Z,9364.00
2018-09-13T09:38:11.819Z,9416.00
2018-09-13T09:39:11.977Z,9532.00
2018-09-13T09:40:12.132Z,9652.00
2018-09-13T09:41:12.287Z,9820.00
2018-09-13T09:42:12.443Z,10028.00
2018-09-13T09:43:12.600Z,10332.00
2018-09-13T09:44:12.774Z,10500.00
2018-09-13T09:45:12.907Z,10640.00
2018-09-13T09:46:13.065Z,10740.00
2018-09-13T09:47:13.214Z,10904.00
2018-09-13T09:48:13.434Z,11224.00
2018-09-13T09:49:13.524Z,11564.00
2018-09-13T09:50:13.688Z,11744.00
2018-09-13T09:51:13.840Z,11684.00
2018-09-13T09:52:14.036Z,11396.00
2018-09-13T09:53:14.148Z,11000.00
2018-09-13T09:54:14.305Z,10868.00
2018-09-13T09:55:14.459Z,10952.00
2018-09-13T09:56:14.671Z,11132.00
2018-09-13T09:57:14.770Z,11324.00
2018-09-13T09:58:14.926Z,11296.00
2018-09-13T09:59:15.082Z,11124.00
2018-09-13T10:00:15.242Z,10948.00
2018-09-13T10:01:15.396Z,10832.00
2018-09-13T10:02:15.551Z,10972.00
2018-09-13T10:03:15.708Z,11384.00
2018-09-13T10:04:15.921Z,11696.00
2018-09-13T10:05:16.017Z,11768.00
2018-09-13T10:06:16.172Z,11772.00
2018-09-13T10:07:16.329Z,11580.00
2018-09-13T10:08:16.483Z,11356.00
2018-09-13T10:09:16.639Z,11608.00
2018-09-13T10:10:16.795Z,12168.00
2018-09-13T10:11:16.948Z,12416.00
2018-09-13T10:12:17.103Z,11648.00
2018-09-13T10:13:17.262Z,12264.00
2018-09-13T10:14:17.415Z,13264.00
2018-09-13T10:15:17.569Z,14060.00
2018-09-13T10:16:17.780Z,14192.00
2018-09-13T10:17:17.887Z,14052.00
2018-09-13T10:18:18.046Z,13320.00
2018-09-13T10:19:18.201Z,12524.00
2018-09-13T10:20:18.355Z,12368.00
2018-09-13T10:21:18.513Z,11916.00
2018-09-13T10:22:18.668Z,11676.00
2018-09-13T10:23:18.822Z,11600.00
2018-09-13T10:24:18.983Z,11460.00
2018-09-13T10:25:19.140Z,11252.00
2018-09-13T10:26:19.295Z,11268.00
2018-09-13T10:27:19.451Z,11272.00
2018-09-13T10:28:19.608Z,11420.00
2018-09-13T10:29:19.837Z,11640.00
2018-09-13T10:30:19.921Z,12132.00
2018-09-13T10:31:20.078Z,12392.00
2018-09-13T10:32:20.238Z,12308.00
2018-09-13T10:33:20.396Z,12260.00
2018-09-13T10:34:20.553Z,12544.00
2018-09-13T10:35:20.712Z,12704.00
2018-09-13T10:36:20.872Z,12992.00
2018-09-13T10:37:21.025Z,13632.00
2018-09-13T10:38:21.181Z,13908.00
2018-09-13T10:39:21.338Z,14076.00
2018-09-13T10:40:21.493Z,12844.00
2018-09-13T10:41:21.653Z,12856.00
2018-09-13T10:42:21.809Z,12960.00
2018-09-13T10:43:21.962Z,12276.00
2018-09-13T10:44:22.115Z,11312.00
2018-09-13T10:45:22.276Z,9508.00
2018-09-13T10:46:22.430Z,8832.00
2018-09-13T10:47:22.612Z,8452.00
2018-09-13T10:48:22.745Z,8280.00
2018-09-13T10:49:22.900Z,7884.00
2018-09-13T10:50:23.053Z,7688.00
2018-09-13T10:51:23.204Z,7336.00
2018-09-13T10:52:23.443Z,7200.00
2018-09-13T10:53:23.518Z,7348.00
2018-09-13T10:54:23.706Z,7328.00
2018-09-13T10:55:23.912Z,7380.00
2018-09-13T10:56:23.996Z,7516.00
2018-09-13T10:57:24.154Z,7672.00
2018-09-13T10:58:24.312Z,7616.00
2018-09-13T10:59:24.471Z,7316.00
2018-09-13T11:00:24.625Z,7068.00
2018-09-13T11:01:24.783Z,7012.00
2018-09-13T11:02:24.942Z,7012.00
2018-09-13T11:03:25.101Z,6980.00
2018-09-13T11:04:25.344Z,6808.00
2018-09-13T11:05:25.413Z,6608.00
2018-09-13T11:06:25.573Z,6436.00
2018-09-13T11:07:25.728Z,6296.00
2018-09-13T11:08:25.886Z,6248.00
2018-09-13T11:09:26.041Z,6316.00
2018-09-13T11:10:26.248Z,6324.00
2018-09-13T11:11:26.418Z,6260.00
2018-09-13T11:12:26.517Z,6260.00
2018-09-13T11:13:26.670Z,6348.00
2018-09-13T11:14:26.827Z,6456.00
2018-09-13T11:15:26.985Z,6512.00
2018-09-13T11:16:27.139Z,6512.00
2018-09-13T11:17:27.297Z,6492.00
2018-09-13T11:18:27.457Z,6484.00
2018-09-13T11:19:27.617Z,6448.00
2018-09-13T11:20:27.774Z,6408.00
2018-09-13T11:21:27.926Z,6432.00
2018-09-13T11:22:28.083Z,6492.00
2018-09-13T11:23:28.240Z,6528.00
2018-09-13T11:24:28.432Z,6544.00
2018-09-13T11:25:28.552Z,6608.00
2018-09-13T11:26:28.710Z,6736.00
2018-09-13T11:27:28.863Z,6876.00
2018-09-13T11:28:29.024Z,6936.00
2018-09-13T11:29:29.180Z,6944.00
2018-09-13T11:30:29.372Z,6920.00
2018-09-13T11:31:29.491Z,6848.00
2018-09-13T11:32:29.658Z,6800.00
2018-09-13T11:33:29.807Z,6820.00
2018-09-13T11:34:29.964Z,6856.00
2018-09-13T11:35:30.121Z,6784.00
2018-09-13T11:36:30.279Z,6600.00
2018-09-13T11:37:30.433Z,6412.00
2018-09-13T11:38:30.590Z,6228.00
2018-09-13T11:39:30.746Z,6056.00
2018-09-13T11:40:31.081Z,5956.00
2018-09-13T11:41:31.057Z,5884.00
2018-09-13T11:42:31.214Z,5816.00
2018-09-13T11:43:31.377Z,5732.00
2018-09-13T11:44:31.531Z,5704.00
2018-09-13T11:45:31.686Z,5800.00
2018-09-13T11:46:31.838Z,5936.00
2018-09-13T11:47:31.995Z,6112.00
2018-09-13T11:48:32.153Z,6248.00
2018-09-13T11:49:32.309Z,6352.00
2018-09-13T11:50:32.466Z,6436.00
2018-09-13T11:51:32.621Z,6492.00
2018-09-13T11:52:32.779Z,6488.00
2018-09-13T11:53:32.938Z,6420.00
2018-09-13T11:54:33.094Z,6380.00
2018-09-13T11:55:33.251Z,6476.00
2018-09-13T11:56:33.410Z,6576.00
2018-09-13T11:57:33.567Z,6628.00
2018-09-13T11:58:33.727Z,6628.00
2018-09-13T11:59:33.886Z,6676.00
2018-09-13T12:00:34.042Z,6688.00
2018-09-13T12:01:34.199Z,6692.00
2018-09-13T12:02:34.355Z,6836.00
2018-09-13T12:03:34.510Z,7028.00
2018-09-13T12:04:34.663Z,7232.00
2018-09-13T12:05:34.819Z,7476.00
2018-09-13T12:06:34.976Z,7676.00
2018-09-13T12:07:35.132Z,7688.00
2018-09-13T12:08:35.286Z,7700.00
2018-09-13T12:09:35.477Z,7772.00
2018-09-13T12:10:35.601Z,7856.00
2018-09-13T12:11:35.756Z,8052.00
2018-09-13T12:12:35.913Z,8336.00
2018-09-13T12:13:36.070Z,8648.00
2018-09-13T12:14:36.225Z,9132.00
2018-09-13T12:15:36.381Z,9692.00
2018-09-13T12:16:36.535Z,10100.00
2018-09-13T12:17:36.696Z,10480.00
2018-09-13T12:18:36.847Z,10576.00
2018-09-13T12:19:37.004Z,10508.00
2018-09-13T12:20:37.164Z,10348.00
2018-09-13T12:21:37.317Z,10088.00
2018-09-13T12:22:37.534Z,9968.00
2018-09-13T12:23:37.640Z,9932.00
2018-09-13T12:24:37.798Z,9792.00
2018-09-13T12:25:37.954Z,9588.00
2018-09-13T12:26:38.111Z,9512.00
2018-09-13T12:27:38.318Z,9748.00
2018-09-13T12:28:38.426Z,10232.00
2018-09-13T12:29:38.580Z,10836.00
2018-09-13T12:30:38.734Z,11364.00
2018-09-13T12:31:38.890Z,11508.00
2018-09-13T12:32:39.057Z,11396.00
2018-09-13T12:33:39.206Z,11244.00